Time;durP1;ratioP1;P1;durP2;ratioP2;P2;SDS_P1;SDS_P2;PMS_P1;PMS_P2;Temp;Humidity;BMP_temperature;BMP_pressure;BME280_temperature;BME280_humidity;BME280_pressure;Samples;Min_cycle;Max_cycle;Signal;HPM_P1;HPM_P2
2023/07/13 07:37:25;;;;;;;3.28;1.23;;;20.90;99.90;;;;;;4972801;23;20241;-77
2023/07/13 07:39:51;;;;;;;5.63;1.02;;;21.30;99.90;;;;;;4976884;28;20218;-70
2023/07/13 07:42:18;;;;;;;3.55;0.80;;;21.50;99.90;;;;;;4972681;28;20209;-73
2023/07/13 07:44:45;;;;;;;6.57;1.20;;;21.60;99.90;;;;;;4953242;28;20227;-73
2023/07/13 07:47:12;;;;;;;5.22;1.10;;;21.80;99.90;;;;;;4966526;28;20214;-74
2023/07/13 07:49:39;;;;;;;3.92;0.80;;;22.00;99.90;;;;;;4960273;28;20212;-74
2023/07/13 07:52:07;;;;;;;1.77;0.90;;;22.40;99.90;;;;;;4957328;28;20666;-74
2023/07/13 07:54:35;;;;;;;5.82;1.02;;;22.70;99.90;;;;;;4955303;28;20235;-74
2023/07/13 07:57:02;;;;;;;3.38;0.98;;;23.00;99.90;;;;;;4955405;28;20204;-73
2023/07/13 07:59:28;;;;;;;3.58;0.82;;;23.30;99.90;;;;;;4955218;28;20222;-74
2023/07/13 08:01:55;;;;;;;5.15;0.93;;;24.00;99.90;;;;;;4955061;28;20215;-74
2023/07/13 08:04:22;;;;;;;4.07;0.77;;;24.50;99.90;;;;;;4937115;29;20533;-73
2023/07/13 08:06:49;;;;;;;3.53;0.70;;;25.30;99.90;;;;;;4955008;28;20208;-73
2023/07/13 08:09:15;;;;;;;4.47;0.98;;;25.60;99.90;;;;;;4954745;28;20215;-74
2023/07/13 08:11:43;;;;;;;2.08;0.82;;;26.00;99.90;;;;;;4954578;28;20204;-74
2023/07/13 08:14:10;;;;;;;2.72;0.82;;;26.40;99.90;;;;;;4955059;28;20254;-74
2023/07/13 08:16:37;;;;;;;2.90;0.90;;;26.70;99.90;;;;;;4955114;28;20204;-74
2023/07/13 08:19:04;;;;;;;3.95;0.90;;;26.10;99.90;;;;;;4954748;28;20235;-74
2023/07/13 08:21:31;;;;;;;3.38;0.88;;;25.80;99.90;;;;;;4954645;28;20242;-74
2023/07/13 08:23:58;;;;;;;2.00;0.80;;;26.30;99.90;;;;;;4954766;28;20241;-73
2023/07/13 08:26:25;;;;;;;3.97;0.98;;;26.60;99.90;;;;;;4954826;28;20218;-75
2023/07/13 08:28:53;;;;;;;1.88;0.80;;;25.40;99.90;;;;;;4954975;28;20239;-75
2023/07/13 08:31:20;;;;;;;4.20;0.80;;;25.00;99.90;;;;;;4954081;28;20218;-77
2023/07/13 08:33:47;;;;;;;4.72;1.17;;;24.80;99.90;;;;;;4954555;28;20235;-76
2023/07/13 08:36:13;;;;;;;2.38;0.90;;;24.90;99.90;;;;;;4954539;28;20219;-76
2023/07/13 08:38:40;;;;;;;3.55;0.93;;;24.60;99.90;;;;;;4954317;28;20232;-76
2023/07/13 08:41:22;;;;;;;3.53;1.05;;;24.90;99.90;;;;;;4954678;28;20694;-76
2023/07/13 08:43:54;;;;;;;3.80;0.88;;;25.50;99.90;;;;;;4935300;29;20236;-76
2023/07/13 08:46:27;;;;;;;3.72;0.98;;;25.80;99.90;;;;;;4935496;29;20215;-77
2023/07/13 08:48:57;;;;;;;2.00;1.00;;;25.90;99.90;;;;;;4935548;29;20676;-76
2023/07/13 08:51:36;;;;;;;1.98;0.70;;;25.80;99.90;;;;;;4938273;29;20204;-74
2023/07/13 08:54:06;;;;;;;4.85;1.00;;;25.40;99.90;;;;;;4954418;28;20227;-77
2023/07/13 08:56:33;;;;;;;2.53;0.80;;;25.60;99.90;;;;;;4957815;28;20212;-77
2023/07/13 08:59:12;;;;;;;1.63;0.68;;;26.10;99.90;;;;;;4958538;28;20228;-76
2023/07/13 09:01:52;;;;;;;3.22;0.70;;;26.80;99.90;;;;;;4958615;28;20298;-76
2023/07/13 09:04:22;;;;;;;4.18;0.90;;;26.30;99.90;;;;;;4958201;28;20231;-77
2023/07/13 09:07:04;;;;;;;3.03;0.80;;;25.70;99.90;;;;;;4958203;28;20871;-74
2023/07/13 09:09:43;;;;;;;3.53;0.90;;;26.30;99.90;;;;;;4958145;28;20208;-74
2023/07/13 09:12:15;;;;;;;4.50;1.00;;;26.30;99.90;;;;;;4958186;28;20208;-74
2023/07/13 09:14:49;;;;;;;2.17;1.00;;;26.10;99.90;;;;;;4958292;28;20239;-75
2023/07/13 09:17:20;;;;;;;3.30;0.90;;;26.80;99.90;;;;;;4958113;28;20204;-71
2023/07/13 09:19:54;;;;;;;1.83;0.77;;;26.70;99.90;;;;;;4958248;28;20227;-71
2023/07/13 09:22:22;;;;;;;6.00;1.00;;;27.20;99.80;;;;;;4957619;28;20200;-72
2023/07/13 09:24:56;;;;;;;2.65;0.73;;;27.10;99.90;;;;;;4958083;28;20228;-72
2023/07/13 09:27:30;;;;;;;4.35;1.00;;;26.50;99.90;;;;;;4957824;28;20212;-72
2023/07/13 09:30:09;;;;;;;3.47;0.80;;;26.20;99.90;;;;;;4958326;28;20204;-72
2023/07/13 09:32:38;;;;;;;3.85;0.88;;;26.30;99.90;;;;;;4957703;28;20562;-71
2023/07/13 09:35:12;;;;;;;4.32;0.70;;;26.60;99.90;;;;;;4957742;28;20662;-71
2023/07/13 09:37:41;;;;;;;3.95;0.80;;;26.70;99.90;;;;;;4957705;28;20634;-71
2023/07/13 09:40:18;;;;;;;3.67;0.75;;;26.90;99.90;;;;;;4957830;28;20267;-71
2023/07/13 09:42:45;;;;;;;3.35;0.82;;;27.00;99.60;;;;;;4957755;28;20208;-72
2023/07/13 09:45:26;;;;;;;3.45;0.80;;;26.80;99.90;;;;;;4957638;28;20208;-73
2023/07/13 09:48:00;;;;;;;2.38;0.90;;;26.90;99.90;;;;;;4957821;28;20215;-71
2023/07/13 09:50:29;;;;;;;2.22;0.90;;;27.00;99.60;;;;;;4957611;28;20212;-72
2023/07/13 09:52:58;;;;;;;4.07;0.90;;;26.70;99.90;;;;;;4957594;28;20235;-71
2023/07/13 09:55:27;;;;;;;2.88;0.90;;;26.40;99.70;;;;;;4957798;28;20307;-72
2023/07/13 09:57:54;;;;;;;4.63;1.08;;;25.80;99.90;;;;;;4957301;28;20806;-72
2023/07/13 10:00:27;;;;;;;2.65;0.98;;;25.80;99.90;;;;;;4957617;28;20208;-73
2023/07/13 10:03:03;;;;;;;4.25;0.85;;;25.90;99.90;;;;;;4957462;28;20223;-71
2023/07/13 10:05:38;;;;;;;3.97;0.75;;;26.30;99.90;;;;;;4957431;28;20251;-71
2023/07/13 10:08:07;;;;;;;2.90;0.88;;;26.00;99.90;;;;;;4956546;28;20219;-72
2023/07/13 10:10:35;;;;;;;2.05;0.50;;;25.80;99.90;;;;;;4957015;28;20685;-71
2023/07/13 10:13:04;;;;;;;2.17;1.02;;;25.90;99.90;;;;;;4957063;28;20691;-71
2023/07/13 10:15:33;;;;;;;5.13;1.42;;;25.70;99.90;;;;;;4956931;28;20671;-71
2023/07/13 10:18:00;;;;;;;1.02;0.70;;;25.50;99.90;;;;;;4957033;28;20231;-72
2023/07/13 10:20:28;;;;;;;1.67;0.95;;;25.10;99.90;;;;;;4956910;28;20299;-75
2023/07/13 10:23:00;;;;;;;2.30;0.70;;;25.00;99.90;;;;;;4957267;28;20228;-71
2023/07/13 10:25:30;;;;;;;4.82;0.93;;;24.80;99.90;;;;;;4957028;28;20263;-71
2023/07/13 10:28:04;;;;;;;6.20;0.90;;;24.60;99.90;;;;;;4956750;28;20212;-72
2023/07/13 10:30:36;;;;;;;2.28;0.85;;;24.60;99.90;;;;;;4956680;28;20247;-71
2023/07/13 10:33:09;;;;;;;2.22;0.85;;;24.50;99.90;;;;;;4956467;28;20706;-72
2023/07/13 10:35:36;;;;;;;2.38;0.60;;;24.70;99.90;;;;;;4956536;28;20659;-72
2023/07/13 10:38:07;;;;;;;1.15;0.70;;;24.70;99.90;;;;;;4956289;28;20211;-72
2023/07/13 10:40:37;;;;;;;2.70;0.68;;;24.60;99.90;;;;;;4956844;28;20231;-71
2023/07/13 10:43:14;;;;;;;2.13;0.80;;;24.60;99.90;;;;;;4956538;28;20232;-71
2023/07/13 10:45:44;;;;;;;1.80;0.68;;;24.80;99.90;;;;;;4956553;28;20303;-73
2023/07/13 10:48:14;;;;;;;0.75;0.60;;;24.90;99.90;;;;;;4956873;28;20294;-71
2023/07/13 10:50:43;;;;;;;1.02;0.63;;;25.00;99.90;;;;;;4956823;28;20245;-71
2023/07/13 10:53:20;;;;;;;1.63;0.80;;;24.80;99.90;;;;;;4956439;28;20234;-71
2023/07/13 10:56:00;;;;;;;1.20;0.65;;;24.40;99.90;;;;;;4955901;28;20220;-71
2023/07/13 10:58:32;;;;;;;3.22;0.70;;;24.10;99.90;;;;;;4956456;28;20235;-72
2023/07/13 11:01:08;;;;;;;1.13;0.60;;;24.00;99.90;;;;;;4956452;28;20212;-71
2023/07/13 11:03:37;;;;;;;2.10;0.70;;;23.80;99.90;;;;;;4956089;28;20235;-74
2023/07/13 11:06:11;;;;;;;2.42;0.68;;;23.80;99.90;;;;;;4956329;28;20214;-74
2023/07/13 11:08:51;;;;;;;2.97;0.82;;;23.80;99.90;;;;;;4955919;28;20306;-71
2023/07/13 11:11:38;;;;;;;1.35;0.63;;;24.00;99.90;;;;;;4956555;28;20208;-71
2023/07/13 11:14:07;;;;;;;5.50;0.80;;;24.40;99.90;;;;;;4956254;28;20679;-71
2023/07/13 11:16:53;;;;;;;1.65;0.63;;;24.50;99.90;;;;;;4956056;28;20235;-71
2023/07/13 11:19:41;;;;;;;1.42;0.70;;;24.40;99.90;;;;;;4955015;28;20594;-71
2023/07/13 11:22:14;;;;;;;1.98;0.40;;;24.20;99.90;;;;;;4955658;28;20294;-73
2023/07/13 11:24:58;;;;;;;2.83;0.70;;;24.40;99.90;;;;;;4955914;28;20230;-74
2023/07/13 11:27:37;;;;;;;1.85;0.50;;;24.60;99.90;;;;;;4955697;28;20288;-73
2023/07/13 11:30:26;;;;;;;2.40;0.60;;;24.40;99.90;;;;;;4955848;28;20211;-74
2023/07/13 11:33:06;;;;;;;2.13;0.73;;;24.50;99.90;;;;;;4952625;28;20606;-75
2023/07/13 11:35:38;;;;;;;1.05;0.68;;;24.50;99.90;;;;;;4954161;28;20216;-72
2023/07/13 11:38:14;;;;;;;2.97;0.70;;;24.50;99.90;;;;;;4953706;29;20219;-72
2023/07/13 11:40:44;;;;;;;3.25;0.60;;;24.70;99.90;;;;;;4955636;28;20335;-73
2023/07/13 11:43:14;;;;;;;1.48;0.60;;;24.80;99.90;;;;;;4955216;28;20224;-72
2023/07/13 11:45:41;;;;;;;3.45;0.80;;;24.90;99.90;;;;;;4954964;28;20223;-73
2023/07/13 11:48:21;;;;;;;2.90;0.70;;;25.00;99.90;;;;;;4955051;28;20228;-73
2023/07/13 11:50:52;;;;;;;2.42;0.68;;;24.80;99.90;;;;;;4955259;28;20603;-73
2023/07/13 11:53:19;;;;;;;1.23;0.60;;;24.60;99.90;;;;;;4949922;28;20319;-74
2023/07/13 11:55:46;;;;;;;2.40;0.60;;;24.40;99.90;;;;;;4953732;28;20204;-72
2023/07/13 11:58:18;;;;;;;1.13;0.60;;;24.40;99.90;;;;;;4953722;28;20216;-70
2023/07/13 12:00:45;;;;;;;0.88;0.65;;;24.20;99.90;;;;;;4953291;28;20556;-72
2023/07/13 12:03:13;;;;;;;4.72;0.63;;;24.40;99.90;;;;;;4953823;28;20648;-72
2023/07/13 12:05:57;;;;;;;3.22;0.82;;;24.40;99.90;;;;;;4953020;28;20215;-75
2023/07/13 12:08:24;;;;;;;2.33;0.77;;;24.30;99.90;;;;;;4952760;28;20247;-72
2023/07/13 12:10:58;;;;;;;3.05;0.70;;;24.30;99.90;;;;;;4953564;28;20220;-73
2023/07/13 12:13:27;;;;;;;1.70;0.60;;;24.00;99.90;;;;;;4953572;28;20228;-73
2023/07/13 12:15:54;;;;;;;1.65;0.90;;;23.80;99.90;;;;;;4953089;28;20211;-73
2023/07/13 12:18:23;;;;;;;3.85;0.77;;;23.50;99.90;;;;;;4953706;28;20765;-72
2023/07/13 12:20:52;;;;;;;4.18;0.85;;;23.60;99.90;;;;;;4953446;28;20664;-74
2023/07/13 12:23:25;;;;;;;2.17;0.70;;;23.70;99.90;;;;;;4952564;28;20271;-72
2023/07/13 12:25:52;;;;;;;2.78;0.70;;;23.30;99.90;;;;;;4953423;28;20234;-70
2023/07/13 12:28:23;;;;;;;1.33;0.55;;;23.30;99.90;;;;;;4953628;28;20212;-73
2023/07/13 12:30:50;;;;;;;1.58;0.50;;;23.10;99.90;;;;;;4952664;28;20211;-72
2023/07/13 12:33:18;;;;;;;1.55;0.57;;;23.30;99.90;;;;;;4953394;28;20224;-72
2023/07/13 12:35:48;;;;;;;1.92;0.70;;;23.40;99.90;;;;;;4952768;28;20218;-72
2023/07/13 12:38:17;;;;;;;1.48;0.60;;;23.40;99.90;;;;;;4951960;28;20679;-71
2023/07/13 12:40:45;;;;;;;2.17;0.70;;;23.80;99.90;;;;;;4953464;28;20702;-72
2023/07/13 12:43:13;;;;;;;0.68;0.50;;;23.80;99.90;;;;;;4944240;29;20236;-70
2023/07/13 12:45:55;;;;;;;0.80;0.50;;;23.70;99.90;;;;;;4953101;28;20207;-71
2023/07/13 12:48:23;;;;;;;1.90;0.70;;;23.20;99.90;;;;;;4936347;29;20216;-71
2023/07/13 12:50:51;;;;;;;0.93;0.52;;;22.60;99.90;;;;;;4944212;29;20208;-68
2023/07/13 12:53:23;;;;;;;0.90;0.47;;;22.30;99.90;;;;;;4955557;28;20319;-71
2023/07/13 12:55:53;;;;;;;1.15;0.57;;;22.20;99.90;;;;;;4955882;28;20208;-72
2023/07/13 12:58:26;;;;;;;1.67;0.50;;;22.20;99.90;;;;;;4953440;28;20306;-72
2023/07/13 13:00:55;;;;;;;2.42;0.65;;;22.20;99.90;;;;;;4952404;28;20247;-71
2023/07/13 13:03:31;;;;;;;2.28;0.63;;;22.10;99.90;;;;;;4945390;29;20228;-72
2023/07/13 13:06:00;;;;;;;2.25;0.60;;;22.00;99.90;;;;;;4952298;28;20222;-72
2023/07/13 13:08:28;;;;;;;4.18;1.20;;;21.50;99.90;;;;;;4953399;28;20216;-71
2023/07/13 13:10:55;;;;;;;2.15;0.85;;;21.30;99.90;;;;;;4953148;28;20222;-72
2023/07/13 13:13:22;;;;;;;3.25;1.02;;;21.20;99.90;;;;;;4952534;28;20234;-70
2023/07/13 13:15:49;;;;;;;2.17;0.80;;;21.10;99.90;;;;;;4952733;28;20282;-72
2023/07/13 13:18:20;;;;;;;1.50;0.75;;;21.10;99.90;;;;;;4952892;28;20239;-72
2023/07/13 13:20:47;;;;;;;1.38;0.68;;;21.20;99.90;;;;;;4948813;28;20728;-68
2023/07/13 13:23:17;;;;;;;3.00;0.70;;;21.30;99.90;;;;;;4957332;28;20322;-67
2023/07/13 13:25:46;;;;;;;2.42;0.73;;;21.50;99.90;;;;;;4954079;28;20258;-68
2023/07/13 13:28:16;;;;;;;1.30;0.68;;;21.90;99.90;;;;;;4954124;28;20215;-67
2023/07/13 13:30:44;;;;;;;1.20;0.68;;;22.40;99.90;;;;;;4954240;28;20208;-67
2023/07/13 13:33:13;;;;;;;4.10;0.90;;;22.60;99.90;;;;;;4954697;28;20234;-68
2023/07/13 13:35:41;;;;;;;2.08;0.63;;;23.00;99.90;;;;;;4954216;28;20204;-69
2023/07/13 13:38:14;;;;;;;1.98;0.75;;;23.10;99.90;;;;;;4953833;28;20208;-68
2023/07/13 13:40:41;;;;;;;1.35;0.60;;;23.20;99.90;;;;;;4940885;29;20263;-68
2023/07/13 13:43:17;;;;;;;2.67;1.20;;;23.30;99.90;;;;;;4956333;28;20232;-68
2023/07/13 13:45:45;;;;;;;4.65;0.80;;;23.40;99.90;;;;;;4957624;28;20243;-68
2023/07/13 13:48:16;;;;;;;1.00;0.60;;;23.40;99.90;;;;;;4957422;28;20218;-68
2023/07/13 13:50:43;;;;;;;2.63;0.68;;;23.70;99.90;;;;;;4957343;28;20208;-69
2023/07/13 13:53:12;;;;;;;1.55;0.75;;;24.00;99.90;;;;;;4957104;28;20310;-68
2023/07/13 13:55:41;;;;;;;1.38;0.63;;;24.30;99.90;;;;;;4957888;28;20205;-69
2023/07/13 13:58:09;;;;;;;0.85;0.47;;;24.60;99.90;;;;;;4957674;28;20204;-68
2023/07/13 14:00:38;;;;;;;0.82;0.60;;;24.60;99.90;;;;;;4957110;28;20239;-68
2023/07/13 14:03:06;;;;;;;2.08;0.70;;;24.70;99.90;;;;;;4956965;28;20311;-69
2023/07/13 14:05:33;;;;;;;1.08;0.70;;;24.30;99.90;;;;;;4957394;28;20725;-68
2023/07/13 14:08:00;;;;;;;1.23;0.60;;;24.40;99.90;;;;;;4957230;28;20291;-69
2023/07/13 14:10:28;;;;;;;3.55;1.20;;;24.40;99.90;;;;;;4957255;28;20263;-68
2023/07/13 14:12:57;;;;;;;1.58;0.88;;;24.40;99.90;;;;;;4956951;28;20247;-68
2023/07/13 14:15:25;;;;;;;1.38;0.82;;;24.20;99.90;;;;;;4956879;28;20196;-68
2023/07/13 14:17:54;;;;;;;3.25;1.17;;;24.50;99.90;;;;;;4956816;28;20223;-68
2023/07/13 14:20:24;;;;;;;1.17;0.57;;;24.40;99.90;;;;;;4957027;28;20232;-68
2023/07/13 14:22:51;;;;;;;1.30;0.60;;;24.30;99.90;;;;;;4957136;28;20624;-68
2023/07/13 14:25:19;;;;;;;1.35;0.60;;;24.30;99.90;;;;;;4957028;28;20215;-69
2023/07/13 14:27:47;;;;;;;1.92;0.90;;;24.40;99.90;;;;;;4956840;28;20212;-68
2023/07/13 14:30:16;;;;;;;2.67;0.80;;;24.20;99.90;;;;;;4957405;28;20639;-68
2023/07/13 14:32:44;;;;;;;1.15;0.50;;;24.10;99.90;;;;;;4956662;28;20212;-69
2023/07/13 14:35:13;;;;;;;1.55;0.63;;;23.90;99.90;;;;;;4956854;28;20730;-69
2023/07/13 14:37:41;;;;;;;1.27;0.60;;;23.60;99.90;;;;;;4956625;28;20212;-68
2023/07/13 14:40:14;;;;;;;1.60;1.00;;;23.70;99.90;;;;;;4956330;28;20236;-68
2023/07/13 14:42:41;;;;;;;1.35;0.68;;;23.80;99.90;;;;;;4956744;28;20696;-69
2023/07/13 14:45:15;;;;;;;3.33;0.70;;;23.70;99.90;;;;;;4956646;28;20562;-68
2023/07/13 14:47:42;;;;;;;1.42;0.68;;;23.50;99.90;;;;;;4956674;28;20212;-69
2023/07/13 14:50:16;;;;;;;1.73;0.60;;;23.40;99.90;;;;;;4956653;28;20218;-70
2023/07/13 14:52:43;;;;;;;0.90;0.60;;;23.50;99.90;;;;;;4956095;28;20216;-71
2023/07/13 14:55:12;;;;;;;1.67;0.77;;;23.60;99.90;;;;;;4956537;28;20307;-72
2023/07/13 14:57:39;;;;;;;3.92;0.80;;;23.30;99.90;;;;;;4956578;28;20208;-71
2023/07/13 15:00:15;;;;;;;1.27;0.65;;;23.50;99.90;;;;;;4956071;28;20240;-72
2023/07/13 15:02:43;;;;;;;2.22;0.82;;;23.70;99.90;;;;;;4956092;28;20208;-72
2023/07/13 15:05:16;;;;;;;0.85;0.50;;;23.80;99.90;;;;;;4956200;28;20574;-72
2023/07/13 15:07:43;;;;;;;3.03;0.63;;;23.80;99.90;;;;;;4956108;28;20215;-72
2023/07/13 15:10:18;;;;;;;1.38;0.65;;;23.50;99.90;;;;;;4956069;28;20207;-72
2023/07/13 15:12:45;;;;;;;2.25;0.65;;;23.40;99.90;;;;;;4956289;28;20211;-72
2023/07/13 15:15:13;;;;;;;1.55;0.73;;;23.40;99.90;;;;;;4955915;28;20216;-72
2023/07/13 15:17:42;;;;;;;1.77;1.00;;;23.60;99.90;;;;;;4955765;28;20267;-71
2023/07/13 15:20:20;;;;;;;1.20;0.65;;;23.50;99.90;;;;;;4955733;28;20236;-72
2023/07/13 15:22:48;;;;;;;1.25;0.68;;;23.30;99.90;;;;;;4955454;28;20214;-72
2023/07/13 15:25:18;;;;;;;2.78;0.75;;;23.40;99.90;;;;;;4955837;28;20291;-72
2023/07/13 15:27:45;;;;;;;2.10;0.75;;;23.30;99.90;;;;;;4955735;28;20207;-72
2023/07/13 15:30:14;;;;;;;1.33;0.68;;;23.40;99.90;;;;;;4955893;28;20212;-72
2023/07/13 15:32:41;;;;;;;1.33;0.63;;;23.50;99.90;;;;;;4955578;28;20632;-72
2023/07/13 15:35:15;;;;;;;2.38;0.70;;;23.40;99.90;;;;;;4955799;28;20224;-71
2023/07/13 15:37:44;;;;;;;1.50;0.57;;;23.70;99.90;;;;;;4955689;28;20694;-72
2023/07/13 15:40:12;;;;;;;1.50;0.57;;;23.80;99.90;;;;;;4956017;28;20236;-72
2023/07/13 15:42:41;;;;;;;2.63;0.70;;;24.00;99.90;;;;;;4955619;28;20219;-72
2023/07/13 15:45:16;;;;;;;1.15;0.60;;;24.20;99.90;;;;;;4955557;28;20214;-71
2023/07/13 15:47:44;;;;;;;1.35;0.70;;;24.00;99.90;;;;;;4955452;28;20708;-71
2023/07/13 15:50:14;;;;;;;2.53;0.80;;;24.00;99.90;;;;;;4955348;28;20215;-73
2023/07/13 15:52:42;;;;;;;1.40;0.80;;;23.90;99.90;;;;;;4955284;28;20243;-72
2023/07/13 15:55:12;;;;;;;1.63;0.70;;;23.80;99.90;;;;;;4955403;28;20212;-73
2023/07/13 15:57:40;;;;;;;1.10;0.65;;;23.90;99.90;;;;;;4955339;28;20251;-72
2023/07/13 16:00:18;;;;;;;1.45;0.60;;;23.80;99.90;;;;;;4955111;28;20270;-72
2023/07/13 16:02:45;;;;;;;1.23;0.85;;;23.80;99.90;;;;;;4955022;28;20208;-73
2023/07/13 16:05:12;;;;;;;2.08;0.50;;;23.90;99.90;;;;;;4954917;28;20571;-70
2023/07/13 16:07:39;;;;;;;1.05;0.60;;;23.90;99.90;;;;;;4955083;28;20577;-73
2023/07/13 16:10:11;;;;;;;1.10;0.73;;;23.90;99.90;;;;;;4955292;28;20223;-73
2023/07/13 16:12:37;;;;;;;1.60;0.80;;;23.80;99.90;;;;;;4954941;28;20204;-71
2023/07/13 16:15:05;;;;;;;1.00;0.73;;;23.70;99.90;;;;;;4955051;28;20675;-71
2023/07/13 16:17:32;;;;;;;1.95;0.65;;;23.70;99.90;;;;;;4955572;28;20214;-72
2023/07/13 16:19:59;;;;;;;0.82;0.60;;;23.80;99.90;;;;;;4955136;28;20242;-73
2023/07/13 16:22:27;;;;;;;1.92;0.70;;;23.90;99.90;;;;;;4954890;28;20212;-72
2023/07/13 16:24:56;;;;;;;0.90;0.80;;;23.90;99.90;;;;;;4954634;28;20283;-72
2023/07/13 16:27:25;;;;;;;2.58;1.10;;;24.00;99.90;;;;;;4954991;28;20618;-72
2023/07/13 16:29:51;;;;;;;2.13;0.57;;;24.20;99.90;;;;;;4952472;28;20619;-71
2023/07/13 16:32:18;;;;;;;1.30;0.60;;;24.30;99.90;;;;;;4953286;28;20214;-71
2023/07/13 16:34:45;;;;;;;1.08;0.73;;;24.40;99.90;;;;;;4954523;28;20216;-71
2023/07/13 16:37:16;;;;;;;1.38;0.60;;;24.30;99.90;;;;;;4954595;28;20219;-71
2023/07/13 16:39:46;;;;;;;1.15;0.60;;;24.30;99.90;;;;;;4954243;28;20232;-71
2023/07/13 16:42:13;;;;;;;1.17;0.80;;;24.20;99.90;;;;;;4954388;28;20212;-70
2023/07/13 16:44:42;;;;;;;1.23;0.60;;;24.20;99.90;;;;;;4954593;28;20316;-70
2023/07/13 16:47:14;;;;;;;1.48;0.70;;;24.50;99.80;;;;;;4954626;28;20215;-71
2023/07/13 16:49:41;;;;;;;0.90;0.60;;;24.60;99.90;;;;;;4954171;28;20311;-71
2023/07/13 16:52:12;;;;;;;1.63;0.70;;;24.60;99.30;;;;;;4954443;28;20218;-71
2023/07/13 16:54:39;;;;;;;2.50;0.73;;;24.50;99.80;;;;;;4954295;28;20224;-71
2023/07/13 16:57:14;;;;;;;1.95;0.73;;;24.20;99.90;;;;;;4954740;28;20203;-71
2023/07/13 16:59:45;;;;;;;2.47;0.73;;;24.10;99.90;;;;;;4953926;28;20219;-71
2023/07/13 17:02:34;;;;;;;1.33;0.88;;;24.00;99.90;;;;;;4954509;28;20222;-71
2023/07/13 17:05:01;;;;;;;1.50;0.73;;;24.00;99.90;;;;;;4954310;28;20674;-71
2023/07/13 17:07:30;;;;;;;2.35;0.70;;;24.20;99.90;;;;;;4954622;28;20212;-71
2023/07/13 17:09:57;;;;;;;3.75;1.20;;;24.30;99.30;;;;;;4954467;28;20215;-71
2023/07/13 17:12:24;;;;;;;1.40;0.82;;;24.20;98.60;;;;;;4954726;28;20210;-71
2023/07/13 17:14:53;;;;;;;1.90;0.73;;;24.30;98.10;;;;;;4953990;28;20232;-71
2023/07/13 17:17:29;;;;;;;2.28;1.13;;;24.40;97.60;;;;;;4957434;28;20208;-72
2023/07/13 17:19:59;;;;;;;2.78;0.80;;;24.50;97.70;;;;;;4957687;28;20204;-71
2023/07/13 17:22:27;;;;;;;4.00;0.80;;;24.60;97.20;;;;;;4957428;28;20222;-72
2023/07/13 17:24:55;;;;;;;2.28;0.70;;;24.60;97.60;;;;;;4957860;28;20234;-72
2023/07/13 17:27:21;;;;;;;2.20;0.60;;;24.70;99.40;;;;;;4957860;28;20218;-72
2023/07/13 17:29:49;;;;;;;1.52;0.80;;;24.50;99.90;;;;;;4957833;28;20216;-71
2023/07/13 17:32:20;;;;;;;1.70;0.90;;;24.60;99.90;;;;;;4957929;28;20218;-72
2023/07/13 17:34:47;;;;;;;2.53;0.90;;;24.50;98.90;;;;;;4957916;28;20703;-69
2023/07/13 17:37:16;;;;;;;3.47;1.02;;;24.50;99.30;;;;;;4957799;28;20212;-69
2023/07/13 17:39:43;;;;;;;1.10;0.60;;;24.40;98.30;;;;;;4958066;28;20212;-70
2023/07/13 17:42:12;;;;;;;1.50;0.73;;;24.30;98.00;;;;;;4957607;28;20235;-69
2023/07/13 17:44:40;;;;;;;1.88;0.60;;;24.20;97.80;;;;;;4957654;28;20232;-70
2023/07/13 17:47:23;;;;;;;1.20;0.77;;;24.00;98.40;;;;;;4957928;28;20224;-70
2023/07/13 17:49:51;;;;;;;3.17;0.60;;;23.90;97.90;;;;;;4957495;28;20207;-70
2023/07/13 17:52:18;;;;;;;1.70;0.70;;;23.80;98.00;;;;;;4957356;28;20263;-70
2023/07/13 17:54:45;;;;;;;1.88;0.73;;;23.70;98.10;;;;;;4957221;28;20231;-70
2023/07/13 17:57:12;;;;;;;2.30;0.70;;;23.60;98.00;;;;;;4957704;28;20267;-69
2023/07/13 17:59:38;;;;;;;1.50;0.75;;;23.50;98.10;;;;;;4957514;28;20210;-70
2023/07/13 18:02:16;;;;;;;2.28;0.75;;;23.60;98.60;;;;;;4957588;28;20235;-69
2023/07/13 18:04:45;;;;;;;2.45;0.73;;;23.60;98.20;;;;;;4957179;28;20314;-70
2023/07/13 18:07:17;;;;;;;1.48;0.82;;;23.80;98.70;;;;;;4956895;28;20219;-71
2023/07/13 18:09:46;;;;;;;3.28;0.77;;;23.90;98.90;;;;;;4957399;28;20729;-71
2023/07/13 18:12:14;;;;;;;2.83;0.73;;;24.10;99.00;;;;;;4957638;28;20283;-70
2023/07/13 18:14:41;;;;;;;1.30;0.77;;;24.00;98.20;;;;;;4957214;28;20232;-71
2023/07/13 18:17:13;;;;;;;1.33;0.63;;;24.00;98.30;;;;;;4957038;28;20267;-71
2023/07/13 18:19:43;;;;;;;0.88;0.60;;;23.90;97.50;;;;;;4956756;28;20215;-72
2023/07/13 18:22:11;;;;;;;1.17;0.80;;;23.90;97.50;;;;;;4956718;28;20231;-72
2023/07/13 18:24:40;;;;;;;1.55;0.70;;;23.70;97.00;;;;;;4957075;28;20234;-71
2023/07/13 18:27:08;;;;;;;1.73;0.73;;;23.60;97.10;;;;;;4958478;28;20208;-70
2023/07/13 18:29:35;;;;;;;2.42;0.65;;;23.50;97.80;;;;;;4957581;28;20251;-68
2023/07/13 18:32:03;;;;;;;3.10;0.98;;;23.40;97.90;;;;;;4958429;28;20212;-69
2023/07/13 18:34:42;;;;;;;1.67;0.90;;;23.40;97.80;;;;;;4958401;28;20266;-69
2023/07/13 18:37:18;;;;;;;1.83;0.85;;;23.30;97.50;;;;;;4957030;28;20223;-69
2023/07/13 18:39:46;;;;;;;2.67;0.80;;;23.30;97.00;;;;;;4956873;28;20207;-69
2023/07/13 18:42:13;;;;;;;2.15;0.88;;;23.10;97.10;;;;;;4956725;28;20246;-69
2023/07/13 18:44:40;;;;;;;1.02;0.63;;;23.10;97.40;;;;;;4956246;28;20647;-69
2023/07/13 18:47:15;;;;;;;2.25;0.80;;;23.10;97.00;;;;;;4956696;28;20212;-70
2023/07/13 18:49:42;;;;;;;1.83;0.75;;;22.90;97.00;;;;;;4956837;28;20203;-69
2023/07/13 18:52:18;;;;;;;2.65;0.70;;;22.80;97.70;;;;;;4956492;28;20659;-69
2023/07/13 18:54:47;;;;;;;1.30;0.60;;;22.70;97.80;;;;;;4956338;28;20278;-70
2023/07/13 18:57:13;;;;;;;2.75;0.73;;;22.70;98.10;;;;;;4956241;28;20207;-69
2023/07/13 18:59:41;;;;;;;2.88;0.75;;;22.60;98.60;;;;;;4956600;28;20208;-69
2023/07/13 19:02:12;;;;;;;2.80;0.70;;;22.60;98.50;;;;;;4956153;28;20267;-69
2023/07/13 19:04:39;;;;;;;1.67;0.60;;;22.50;98.70;;;;;;4956231;28;20235;-69
2023/07/13 19:07:09;;;;;;;1.17;0.80;;;22.50;98.80;;;;;;4956072;28;20212;-68
2023/07/13 19:09:36;;;;;;;1.88;0.63;;;22.40;98.90;;;;;;4956208;28;20218;-69
2023/07/13 19:12:15;;;;;;;1.52;0.60;;;22.30;98.70;;;;;;4956261;28;20212;-69
2023/07/13 19:14:42;;;;;;;3.33;0.70;;;22.30;98.70;;;;;;4956198;28;20230;-69
2023/07/13 19:17:10;;;;;;;0.85;0.57;;;22.20;99.10;;;;;;4956044;28;20311;-69
2023/07/13 19:19:37;;;;;;;1.33;0.60;;;22.10;99.20;;;;;;4955889;28;20223;-69
2023/07/13 19:22:06;;;;;;;1.25;0.75;;;22.00;99.40;;;;;;4955745;28;20240;-69
2023/07/13 19:24:33;;;;;;;1.20;0.57;;;22.00;99.70;;;;;;4956010;28;20260;-70
2023/07/13 19:27:00;;;;;;;1.45;0.77;;;22.00;99.80;;;;;;4955811;28;20239;-69
2023/07/13 19:29:29;;;;;;;1.42;0.60;;;22.00;99.80;;;;;;4955784;28;20303;-69
2023/07/13 19:31:56;;;;;;;2.80;1.30;;;22.00;99.90;;;;;;4955592;28;20563;-69
2023/07/13 19:34:25;;;;;;;2.00;1.10;;;22.00;99.90;;;;;;4956281;28;20228;-69
2023/07/13 19:36:58;;;;;;;2.95;0.75;;;22.10;99.90;;;;;;4955467;28;20220;-69
2023/07/13 19:39:29;;;;;;;1.35;0.65;;;22.10;99.90;;;;;;4954871;28;20563;-69
2023/07/13 19:41:57;;;;;;;2.20;0.70;;;22.00;99.90;;;;;;4955607;28;20263;-69
2023/07/13 19:44:25;;;;;;;1.30;0.60;;;22.00;99.90;;;;;;4955481;28;20279;-70
2023/07/13 19:46:58;;;;;;;1.73;0.60;;;21.90;99.90;;;;;;4955397;28;20254;-69
2023/07/13 19:49:25;;;;;;;1.65;0.60;;;21.90;99.90;;;;;;4955401;28;20268;-69
2023/07/13 19:51:52;;;;;;;0.60;0.40;;;21.90;99.90;;;;;;4955567;28;20218;-69
2023/07/13 19:54:19;;;;;;;2.13;0.70;;;21.80;99.90;;;;;;4955357;28;20235;-69
2023/07/13 19:56:46;;;;;;;1.42;0.60;;;21.80;99.90;;;;;;4955667;28;20778;-69
2023/07/13 19:59:24;;;;;;;1.42;0.50;;;21.80;99.90;;;;;;4955320;28;20229;-69
2023/07/13 20:01:51;;;;;;;1.23;0.50;;;21.70;99.90;;;;;;4955214;28;20266;-69
2023/07/13 20:04:19;;;;;;;3.28;0.50;;;21.70;99.90;;;;;;4955118;28;20232;-71
2023/07/13 20:06:46;;;;;;;1.98;0.50;;;21.70;99.90;;;;;;4955474;28;20302;-69
2023/07/13 20:09:17;;;;;;;2.33;1.27;;;21.50;99.90;;;;;;4955166;28;20298;-69
2023/07/13 20:11:44;;;;;;;0.80;0.43;;;21.50;99.90;;;;;;4955292;28;20214;-69
2023/07/13 20:14:18;;;;;;;3.28;1.40;;;21.50;99.90;;;;;;4954944;28;20234;-69
2023/07/13 20:16:45;;;;;;;0.95;0.40;;;21.50;99.90;;;;;;4955363;28;20211;-69
2023/07/13 20:19:13;;;;;;;0.95;0.45;;;21.50;99.90;;;;;;4955131;28;20208;-70
2023/07/13 20:21:42;;;;;;;1.08;0.47;;;21.50;99.90;;;;;;4955107;28;20235;-69
2023/07/13 20:24:15;;;;;;;2.22;0.47;;;21.40;99.90;;;;;;4955228;28;20228;-69
2023/07/13 20:26:42;;;;;;;1.98;0.50;;;21.30;99.90;;;;;;4954223;28;20706;-69
2023/07/13 20:29:09;;;;;;;1.63;0.60;;;21.30;99.90;;;;;;4954623;28;20214;-69
2023/07/13 20:31:36;;;;;;;1.92;0.75;;;21.30;99.90;;;;;;4954591;28;20663;-70
2023/07/13 20:34:04;;;;;;;1.40;0.50;;;21.20;99.90;;;;;;4954527;28;20232;-69
2023/07/13 20:36:31;;;;;;;2.33;0.63;;;21.20;99.90;;;;;;4954548;28;20222;-69
2023/07/13 20:38:59;;;;;;;4.97;0.70;;;21.20;99.90;;;;;;4954040;28;20226;-69